Time;durP1;ratioP1;P1;durP2;ratioP2;P2;SDS_P1;SDS_P2;PMS_P1;PMS_P2;Temp;Humidity;BMP_temperature;BMP_pressure;BME280_temperature;BME280_humidity;BME280_pressure;Samples;Min_cycle;Max_cycle;Signal;HPM_P1;HPM_P2
2022/04/04 00:01:05;;;;;;;51.47;22.10;;;-0.70;99.90;;;;;;4419001;28;657796;-67
2022/04/04 00:03:52;;;;;;;54.90;22.87;;;-0.80;99.90;;;;;;4394513;28;658904;-67
2022/04/04 00:06:40;;;;;;;58.13;23.67;;;-0.90;99.90;;;;;;4404748;28;657744;-67
2022/04/04 00:09:28;;;;;;;55.17;23.23;;;-0.90;99.90;;;;;;4416551;28;658969;-67
2022/04/04 00:12:16;;;;;;;51.00;23.00;;;-1.00;99.90;;;;;;4413156;28;657957;-67
2022/04/04 00:15:03;;;;;;;56.37;22.77;;;-1.00;99.90;;;;;;4414597;28;658570;-67
2022/04/04 00:17:52;;;;;;;25.67;9.43;;;-1.00;99.90;;;;;;4393653;28;657723;-67
2022/04/04 00:20:39;;;;;;;53.13;19.67;;;-0.80;99.90;;;;;;4416915;28;657240;-67
2022/04/04 00:23:26;;;;;;;57.87;16.10;;;-0.50;99.90;;;;;;4390337;28;657596;-67
2022/04/04 00:26:14;;;;;;;50.30;20.87;;;-0.50;99.90;;;;;;4411213;28;657498;-67
2022/04/04 00:29:01;;;;;;;55.80;22.60;;;-0.40;99.90;;;;;;4394199;28;658118;-67
2022/04/04 00:31:49;;;;;;;52.53;22.37;;;-0.40;99.90;;;;;;4414800;28;657506;-67
2022/04/04 00:34:38;;;;;;;46.50;18.53;;;-0.50;99.90;;;;;;4392550;28;657409;-67
2022/04/04 00:37:25;;;;;;;43.25;16.98;;;-0.60;99.90;;;;;;4397470;28;659029;-67
2022/04/04 00:40:13;;;;;;;50.23;18.70;;;-0.50;99.90;;;;;;4416417;28;659020;-67
2022/04/04 00:43:00;;;;;;;30.57;13.17;;;-0.50;99.90;;;;;;4397459;28;657457;-67
2022/04/04 00:45:49;;;;;;;45.27;18.47;;;-0.50;99.90;;;;;;4419302;28;659125;-67
2022/04/04 00:48:36;;;;;;;15.77;5.67;;;-0.50;99.90;;;;;;4389758;28;657552;-67
2022/04/04 00:51:25;;;;;;;38.77;15.30;;;-0.50;99.90;;;;;;4408725;28;658111;-67
2022/04/04 00:54:13;;;;;;;28.70;11.33;;;-0.60;99.90;;;;;;4383779;28;658492;-67
2022/04/04 00:57:02;;;;;;;38.63;15.73;;;-0.60;99.90;;;;;;4402683;28;658083;-67
2022/04/04 00:59:49;;;;;;;37.60;17.47;;;-0.70;99.90;;;;;;4409524;28;657902;-67
2022/04/04 01:02:36;;;;;;;17.53;8.67;;;-0.70;99.90;;;;;;4392106;28;657820;-67
2022/04/04 01:05:24;;;;;;;33.90;15.07;;;-0.70;99.90;;;;;;4415103;28;656866;-67
2022/04/04 01:08:13;;;;;;;41.97;18.03;;;-0.70;99.90;;;;;;4381797;28;657983;-67
2022/04/04 01:11:01;;;;;;;41.53;18.30;;;-0.70;99.90;;;;;;4388144;28;658762;-67
2022/04/04 01:13:48;;;;;;;36.57;17.30;;;-0.80;99.90;;;;;;4417031;28;658103;-67
2022/04/04 01:16:36;;;;;;;44.13;18.43;;;-0.80;99.90;;;;;;4396977;28;657657;-67
2022/04/04 01:19:23;;;;;;;36.70;14.63;;;-0.70;99.90;;;;;;4413299;28;658042;-67
2022/04/04 01:22:11;;;;;;;36.45;16.70;;;-0.80;99.90;;;;;;4395259;28;657204;-67
2022/04/04 01:25:04;;;;;;;36.87;15.97;;;-0.80;99.90;;;;;;4410941;28;657641;-67
2022/04/04 01:27:51;;;;;;;30.40;13.73;;;-0.90;99.90;;;;;;4395512;28;658275;-67
2022/04/04 01:30:39;;;;;;;34.13;16.00;;;-0.80;99.90;;;;;;4412489;28;659223;-67
2022/04/04 01:33:26;;;;;;;13.95;6.75;;;-0.70;99.90;;;;;;4392865;28;657862;-67
2022/04/04 01:36:14;;;;;;;28.17;13.63;;;-0.70;99.90;;;;;;4410564;28;656856;-67
2022/04/04 01:39:01;;;;;;;20.38;9.73;;;-0.60;99.90;;;;;;4379443;28;657797;-67
2022/04/04 01:41:50;;;;;;;31.10;14.87;;;-0.60;99.90;;;;;;4413165;28;656295;-67
2022/04/04 01:44:37;;;;;;;35.97;14.90;;;-0.70;99.90;;;;;;4389656;28;658172;-67
2022/04/04 01:47:25;;;;;;;33.00;15.40;;;-0.90;99.90;;;;;;4412249;28;658655;-67
2022/04/04 01:50:13;;;;;;;30.63;15.07;;;-0.90;99.90;;;;;;4409807;28;658482;-67
2022/04/04 01:56:03;;;;;;;30.20;15.17;;;-1.10;99.90;;;;;;4360251;28;658519;-67
2022/04/04 01:58:52;;;;;;;29.53;14.00;;;-1.10;99.90;;;;;;4383727;28;657425;-67
2022/04/04 02:01:40;;;;;;;32.33;15.07;;;-1.10;99.90;;;;;;4412581;28;658403;-67
2022/04/04 02:04:28;;;;;;;31.97;14.20;;;-1.10;99.90;;;;;;4386608;28;659611;-67
2022/04/04 02:07:15;;;;;;;31.92;13.73;;;-0.90;99.90;;;;;;4388496;28;657634;-67
2022/04/04 02:10:03;;;;;;;27.63;12.80;;;-1.00;99.90;;;;;;4401465;28;658760;-67
2022/04/04 02:12:50;;;;;;;30.43;13.63;;;-0.90;99.90;;;;;;4390148;28;657513;-67
2022/04/04 02:15:39;;;;;;;24.97;12.17;;;-1.00;99.90;;;;;;4402692;28;659168;-67
2022/04/04 02:18:26;;;;;;;26.63;12.20;;;-0.90;99.90;;;;;;4385435;28;657719;-67
2022/04/04 02:21:14;;;;;;;25.67;11.73;;;-0.90;99.90;;;;;;4406135;28;657300;-67
2022/04/04 02:24:01;;;;;;;23.57;11.63;;;-1.10;99.90;;;;;;4378440;28;657750;-67
2022/04/04 02:26:49;;;;;;;25.60;12.20;;;-1.20;99.90;;;;;;4405895;28;658783;-67
2022/04/04 02:29:36;;;;;;;6.00;3.67;;;-1.20;99.90;;;;;;4391059;28;658002;-67
2022/04/04 02:32:25;;;;;;;23.57;10.50;;;-0.90;99.90;;;;;;4411065;28;656033;-67
2022/04/04 02:35:12;;;;;;;27.67;11.97;;;-0.90;99.90;;;;;;4386849;28;658610;-67
2022/04/04 02:37:59;;;;;;;20.50;8.33;;;-0.90;99.90;;;;;;4410638;28;656930;-67
2022/04/04 02:40:47;;;;;;;18.20;9.83;;;-0.90;99.90;;;;;;4386949;28;656319;-67
2022/04/04 02:43:34;;;;;;;22.27;10.27;;;-0.80;99.90;;;;;;4410124;28;658568;-67
2022/04/04 02:46:21;;;;;;;20.60;9.40;;;-0.80;99.90;;;;;;4391170;28;657667;-67
2022/04/04 02:49:10;;;;;;;5.03;2.93;;;-0.80;99.90;;;;;;4410161;28;656993;-67
2022/04/04 02:51:58;;;;;;;19.45;6.75;;;-0.90;99.90;;;;;;4394625;28;656208;-67
2022/04/04 02:54:45;;;;;;;6.30;3.10;;;-0.80;99.90;;;;;;4402661;28;656710;-67
2022/04/04 02:57:32;;;;;;;19.27;9.90;;;-0.80;99.90;;;;;;4413215;28;656679;-67
2022/04/04 03:00:19;;;;;;;11.00;4.47;;;-0.70;99.90;;;;;;4409128;28;656609;-67
2022/04/04 03:03:06;;;;;;;20.57;10.00;;;-0.60;99.90;;;;;;4388885;28;656628;-67
2022/04/04 03:05:55;;;;;;;21.47;10.50;;;-0.80;99.90;;;;;;4408041;28;657432;-67
2022/04/04 03:08:42;;;;;;;19.88;9.02;;;-0.90;99.90;;;;;;4392731;28;659178;-67
2022/04/04 03:11:30;;;;;;;18.77;9.43;;;-0.90;99.90;;;;;;4414534;28;657580;-67
2022/04/04 03:14:18;;;;;;;18.30;9.30;;;-0.90;99.90;;;;;;4410826;28;658697;-67
2022/04/04 03:17:06;;;;;;;19.87;9.63;;;-0.90;99.90;;;;;;4400950;28;656494;-67
2022/04/04 03:19:53;;;;;;;16.10;6.87;;;-1.00;99.90;;;;;;4411761;28;657812;-67
2022/04/04 03:22:43;;;;;;;17.17;9.45;;;-1.00;99.90;;;;;;4392985;28;658023;-67
2022/04/04 03:25:30;;;;;;;18.65;9.73;;;-1.20;99.90;;;;;;4403448;28;656739;-67
2022/04/04 03:28:18;;;;;;;16.57;9.27;;;-1.40;99.90;;;;;;4413026;28;657481;-67
2022/04/04 03:31:05;;;;;;;20.17;9.53;;;-1.50;99.90;;;;;;4395835;28;656879;-67
2022/04/04 03:33:53;;;;;;;16.20;9.20;;;-1.60;99.90;;;;;;4414986;28;657976;-67
2022/04/04 03:36:40;;;;;;;14.23;8.07;;;-1.60;99.90;;;;;;4408815;28;657845;-67
2022/04/04 03:39:29;;;;;;;18.93;9.53;;;-1.40;99.90;;;;;;4414349;28;657824;-67
2022/04/04 03:42:17;;;;;;;18.38;9.43;;;-1.40;99.90;;;;;;4388699;28;657121;-67
2022/04/04 03:45:05;;;;;;;17.57;9.30;;;-1.60;99.90;;;;;;4415537;28;656638;-67
2022/04/04 03:47:52;;;;;;;20.27;9.30;;;-1.60;99.90;;;;;;4389681;28;657160;-67
2022/04/04 03:50:40;;;;;;;17.30;9.97;;;-1.80;99.90;;;;;;4413781;28;656587;-67
2022/04/04 03:53:28;;;;;;;15.50;9.00;;;-1.90;99.90;;;;;;4413961;28;657786;-67
2022/04/04 03:56:17;;;;;;;19.87;9.73;;;-2.00;99.90;;;;;;4386682;28;659260;-67
2022/04/04 03:59:04;;;;;;;12.07;5.97;;;-1.90;99.90;;;;;;4408295;28;656787;-67
2022/04/04 04:01:51;;;;;;;17.73;9.60;;;-1.90;99.90;;;;;;4410086;28;656733;-67
2022/04/04 04:04:39;;;;;;;20.13;9.40;;;-1.80;99.90;;;;;;4421645;28;657313;-67
2022/04/04 04:07:26;;;;;;;19.73;10.87;;;-1.60;99.90;;;;;;4402182;28;656827;-67
2022/04/04 04:10:14;;;;;;;20.57;10.57;;;-1.50;99.90;;;;;;4418401;28;657285;-67
2022/04/04 04:13:05;;;;;;;22.17;10.83;;;-1.70;99.90;;;;;;4402742;28;657535;-67
2022/04/04 04:15:52;;;;;;;23.90;11.17;;;-1.70;99.90;;;;;;4381281;28;658012;-67
2022/04/04 04:18:39;;;;;;;20.43;10.90;;;-1.70;99.90;;;;;;4402596;28;657495;-67
2022/04/04 04:21:27;;;;;;;22.27;10.50;;;-1.70;99.90;;;;;;4384412;28;658716;-67
2022/04/04 04:24:14;;;;;;;21.57;11.13;;;-1.70;99.90;;;;;;4410161;28;658144;-67
2022/04/04 04:27:01;;;;;;;19.73;9.80;;;-1.70;99.90;;;;;;4385366;28;657734;-67
2022/04/04 04:29:50;;;;;;;22.90;10.80;;;-1.60;99.90;;;;;;4415855;28;656366;-67
2022/04/04 04:32:38;;;;;;;17.40;8.30;;;-1.60;99.90;;;;;;4392573;28;658789;-67
2022/04/04 04:35:25;;;;;;;18.40;9.03;;;-1.60;99.90;;;;;;4411328;28;656848;-67
2022/04/04 04:38:13;;;;;;;15.97;7.10;;;-1.30;99.90;;;;;;4415076;28;657915;-67
2022/04/04 04:41:00;;;;;;;21.53;10.37;;;-1.20;99.90;;;;;;4400475;28;656471;-67
2022/04/04 04:43:48;;;;;;;10.97;5.43;;;-1.20;99.90;;;;;;4418936;28;658565;-67
2022/04/04 04:46:37;;;;;;;20.63;10.30;;;-1.10;99.90;;;;;;4411242;28;656922;-67
2022/04/04 04:49:26;;;;;;;31.37;10.63;;;-1.00;98.60;;;;;;4418288;28;657838;-67
2022/04/04 04:52:13;;;;;;;19.87;8.47;;;-1.10;99.90;;;;;;4387793;28;658397;-67
2022/04/04 04:55:00;;;;;;;37.73;13.63;;;-1.20;99.90;;;;;;4382425;28;657152;-67
2022/04/04 04:57:48;;;;;;;15.97;7.20;;;-1.20;99.10;;;;;;4409001;28;658359;-67
2022/04/04 05:00:37;;;;;;;22.87;10.87;;;-1.20;99.60;;;;;;4391720;28;656579;-67
2022/04/04 05:03:26;;;;;;;31.77;14.93;;;-1.10;98.40;;;;;;4401282;28;657268;-67
2022/04/04 05:06:13;;;;;;;16.00;6.53;;;-0.90;96.70;;;;;;4388503;28;658259;-67
2022/04/04 05:09:00;;;;;;;19.85;8.82;;;-0.90;96.30;;;;;;4392746;28;656414;-67
2022/04/04 05:11:48;;;;;;;20.97;10.17;;;-0.80;94.80;;;;;;4416625;28;657518;-67
2022/04/04 05:14:36;;;;;;;14.65;6.40;;;-0.70;94.40;;;;;;4399438;28;657535;-67
2022/04/04 05:17:23;;;;;;;23.57;10.97;;;-0.50;91.50;;;;;;4420236;28;657381;-67
2022/04/04 05:20:12;;;;;;;14.47;6.00;;;-0.50;91.60;;;;;;4393498;28;658554;-67
2022/04/04 05:23:00;;;;;;;16.50;5.33;;;-0.40;90.40;;;;;;4413101;28;656989;-67
2022/04/04 05:25:48;;;;;;;10.90;5.40;;;-0.30;90.90;;;;;;4420272;28;658050;-67
2022/04/04 05:28:35;;;;;;;20.13;9.88;;;-0.20;90.10;;;;;;4401189;28;657296;-67
2022/04/04 05:31:23;;;;;;;15.10;5.73;;;-0.10;87.90;;;;;;4424593;28;658058;-67
2022/04/04 05:34:10;;;;;;;13.50;6.13;;;0.00;85.90;;;;;;4403573;28;656880;-67
2022/04/04 05:36:59;;;;;;;18.97;8.77;;;0.20;84.10;;;;;;4420642;28;656627;-67
2022/04/04 05:39:46;;;;;;;17.40;8.65;;;0.20;84.80;;;;;;4407567;28;656407;-67
2022/04/04 05:42:34;;;;;;;14.80;7.50;;;0.30;85.20;;;;;;4425755;28;654988;-67
2022/04/04 05:45:21;;;;;;;10.10;5.53;;;0.40;82.40;;;;;;4399720;28;655738;-67
2022/04/04 05:48:09;;;;;;;17.83;7.60;;;0.50;81.80;;;;;;4421386;28;655861;-67
2022/04/04 05:50:56;;;;;;;16.53;7.20;;;0.50;79.30;;;;;;4407429;28;655446;-67
2022/04/04 05:53:45;;;;;;;10.77;5.50;;;0.50;79.90;;;;;;4429703;28;655312;-67
2022/04/04 05:56:34;;;;;;;16.67;8.10;;;0.40;80.90;;;;;;4402290;28;656825;-67
2022/04/04 05:59:21;;;;;;;14.07;7.67;;;0.40;82.30;;;;;;4407823;28;655997;-67
2022/04/04 06:02:08;;;;;;;11.65;5.88;;;0.40;81.40;;;;;;4420968;28;656329;-67
2022/04/04 06:04:57;;;;;;;11.63;5.87;;;0.30;82.30;;;;;;4394954;28;655159;-66
2022/04/04 06:07:45;;;;;;;13.67;8.07;;;0.30;83.20;;;;;;4427222;28;655660;-67
2022/04/04 06:10:34;;;;;;;7.90;4.47;;;0.40;83.70;;;;;;4398179;28;656142;-67
2022/04/04 06:13:21;;;;;;;15.03;6.03;;;0.40;81.50;;;;;;4390410;28;654373;-67
2022/04/04 06:16:09;;;;;;;15.93;8.27;;;0.50;80.60;;;;;;4420620;28;657500;-67
2022/04/04 06:18:57;;;;;;;11.80;5.80;;;0.50;83.70;;;;;;4396800;28;655413;-67
2022/04/04 06:21:45;;;;;;;16.30;8.53;;;0.50;82.00;;;;;;4409521;28;655841;-67
2022/04/04 06:24:33;;;;;;;16.07;8.30;;;0.60;82.50;;;;;;4397324;28;656976;-67
2022/04/04 06:27:22;;;;;;;16.87;5.63;;;0.60;80.60;;;;;;4399888;28;655938;-67
2022/04/04 06:30:10;;;;;;;23.27;9.17;;;0.70;79.00;;;;;;4410115;28;655655;-67
2022/04/04 06:32:58;;;;;;;5.37;2.63;;;0.70;79.00;;;;;;4388518;28;656140;-67
2022/04/04 06:35:47;;;;;;;16.67;8.33;;;0.80;78.20;;;;;;4407072;28;654793;-67
2022/04/04 06:38:35;;;;;;;16.77;8.57;;;0.90;76.70;;;;;;4420942;28;655299;-67
2022/04/04 06:41:22;;;;;;;18.50;8.60;;;0.90;76.70;;;;;;4403028;28;657072;-67
2022/04/04 06:44:11;;;;;;;13.07;6.50;;;0.90;75.50;;;;;;4419742;28;656087;-67
2022/04/04 06:46:59;;;;;;;13.70;6.20;;;1.00;74.50;;;;;;4391433;28;655810;-67
2022/04/04 06:49:46;;;;;;;12.03;5.13;;;1.10;75.20;;;;;;4401372;28;655601;-67
2022/04/04 06:52:34;;;;;;;17.67;8.63;;;1.30;73.60;;;;;;4420870;28;655521;-67
2022/04/04 06:55:21;;;;;;;13.00;6.10;;;1.40;72.50;;;;;;4403200;28;655446;-67
2022/04/04 06:58:09;;;;;;;13.40;7.03;;;1.50;73.10;;;;;;4418057;28;655903;-67
2022/04/04 07:00:58;;;;;;;19.57;8.57;;;1.50;70.70;;;;;;4402059;28;655980;-66
2022/04/04 07:03:46;;;;;;;17.47;7.43;;;1.40;70.70;;;;;;4395650;28;655542;-67
2022/04/04 07:06:33;;;;;;;21.97;7.93;;;1.40;71.30;;;;;;4429333;28;656699;-67
2022/04/04 07:09:20;;;;;;;11.00;5.37;;;1.10;72.50;;;;;;4400992;28;655571;-66
2022/04/04 07:12:09;;;;;;;13.10;5.93;;;1.10;71.20;;;;;;4420659;28;657126;-66
2022/04/04 07:14:56;;;;;;;9.33;4.47;;;1.00;71.90;;;;;;4409611;28;655970;-66
2022/04/04 07:17:45;;;;;;;8.23;4.33;;;1.10;73.00;;;;;;4431500;28;655907;-67
2022/04/04 07:20:33;;;;;;;10.53;5.20;;;1.20;73.30;;;;;;4389321;28;655204;-66
2022/04/04 07:23:21;;;;;;;11.43;4.90;;;1.40;73.20;;;;;;4414229;28;656140;-66
2022/04/04 07:26:08;;;;;;;12.50;6.33;;;1.40;72.30;;;;;;4421705;28;655323;-67
2022/04/04 07:28:56;;;;;;;12.53;6.17;;;1.40;71.90;;;;;;4399143;28;656012;-67
2022/04/04 07:31:43;;;;;;;9.33;6.13;;;1.40;73.10;;;;;;4422094;28;655429;-67
2022/04/04 07:34:33;;;;;;;17.00;7.03;;;1.50;72.70;;;;;;4399305;28;654427;-67
2022/04/04 07:37:20;;;;;;;11.33;6.00;;;1.40;74.10;;;;;;4408175;28;656016;-67
2022/04/04 07:40:10;;;;;;;10.43;5.37;;;1.50;74.30;;;;;;4430730;28;657131;-66
2022/04/04 07:42:58;;;;;;;10.43;5.77;;;1.70;75.30;;;;;;4395950;28;656108;-67
2022/04/04 07:45:45;;;;;;;9.77;5.80;;;2.10;73.60;;;;;;4406605;28;656043;-66
2022/04/04 07:48:33;;;;;;;13.90;7.03;;;2.50;72.00;;;;;;4429319;28;655441;-67
2022/04/04 07:51:22;;;;;;;10.60;6.30;;;2.80;71.80;;;;;;4407428;28;655503;-66
2022/04/04 07:54:10;;;;;;;12.30;7.00;;;2.60;71.60;;;;;;4423878;28;655891;-67
2022/04/04 07:56:58;;;;;;;8.03;4.63;;;2.80;73.30;;;;;;4401875;28;656650;-66
2022/04/04 07:59:45;;;;;;;11.73;6.57;;;2.90;69.90;;;;;;4413374;28;655207;-66
2022/04/04 08:02:33;;;;;;;6.63;3.93;;;2.80;70.20;;;;;;4425513;28;656601;-66
2022/04/04 08:05:21;;;;;;;14.83;5.70;;;2.90;72.00;;;;;;4410530;28;654461;-66
2022/04/04 08:08:10;;;;;;;7.88;4.22;;;3.20;71.70;;;;;;4423393;28;656903;-66
2022/04/04 08:10:57;;;;;;;11.93;5.70;;;3.50;70.00;;;;;;4401549;28;655623;-66
2022/04/04 08:13:45;;;;;;;9.10;5.67;;;3.50;68.40;;;;;;4417767;28;656892;-66
2022/04/04 08:16:33;;;;;;;12.27;6.23;;;3.30;68.20;;;;;;4424757;28;655258;-66
2022/04/04 08:19:20;;;;;;;12.63;4.63;;;3.10;69.90;;;;;;4404874;28;655594;-66
2022/04/04 08:22:08;;;;;;;6.57;3.90;;;2.90;70.80;;;;;;4417988;28;656949;-66
2022/04/04 08:24:57;;;;;;;11.97;6.40;;;2.90;70.70;;;;;;4407956;28;655734;-66
2022/04/04 08:27:44;;;;;;;16.17;7.70;;;2.80;69.80;;;;;;4421742;28;656355;-66
2022/04/04 08:30:32;;;;;;;7.23;4.20;;;2.80;72.90;;;;;;4407857;28;655498;-66
2022/04/04 08:33:19;;;;;;;13.20;8.10;;;2.60;73.70;;;;;;4430527;28;654591;-66
2022/04/04 08:36:07;;;;;;;11.07;6.90;;;2.40;74.10;;;;;;4402376;28;655985;-66
2022/04/04 08:38:54;;;;;;;10.20;4.70;;;2.40;74.60;;;;;;4426664;28;655328;-66
2022/04/04 08:41:43;;;;;;;15.93;6.67;;;2.30;74.70;;;;;;4395419;28;655917;-66
2022/04/04 08:44:30;;;;;;;12.00;6.83;;;2.20;76.20;;;;;;4408537;28;657187;-67
2022/04/04 08:47:18;;;;;;;10.60;5.57;;;2.30;76.60;;;;;;4423702;28;656975;-67
2022/04/04 08:50:06;;;;;;;9.50;6.13;;;2.30;75.00;;;;;;4403967;28;655629;-66
2022/04/04 08:52:53;;;;;;;14.50;7.93;;;2.10;76.40;;;;;;4422193;28;655349;-66
2022/04/04 08:55:41;;;;;;;10.43;5.30;;;2.10;78.80;;;;;;4408652;28;655614;-66
2022/04/04 08:58:30;;;;;;;12.93;6.07;;;2.20;78.10;;;;;;4425104;28;655624;-66
2022/04/04 09:01:18;;;;;;;9.40;5.20;;;2.50;78.60;;;;;;4402800;28;656631;-66
2022/04/04 09:04:18;;;;;;;12.67;7.23;;;2.90;76.40;;;;;;4399488;28;654227;-66
2022/04/04 09:07:06;;;;;;;13.63;7.07;;;3.20;74.00;;;;;;4383061;28;655146;-67
2022/04/04 09:09:54;;;;;;;15.73;8.50;;;3.30;72.30;;;;;;4414577;28;656175;-66
2022/04/04 09:12:42;;;;;;;5.90;3.00;;;3.40;72.00;;;;;;4390829;28;655332;-66
2022/04/04 09:15:50;;;;;;;13.67;7.00;;;3.50;73.50;;;;;;4420301;28;654705;-66
2022/04/04 09:18:43;;;;;;;12.63;5.47;;;3.80;74.00;;;;;;4398503;28;656571;-66
2022/04/04 09:21:33;;;;;;;7.57;4.50;;;4.10;69.80;;;;;;4406361;28;655233;-66
2022/04/04 09:24:21;;;;;;;11.90;6.67;;;4.10;69.70;;;;;;4404172;28;654428;-66
2022/04/04 09:27:11;;;;;;;10.57;5.88;;;4.20;68.70;;;;;;4423953;28;656324;-66
2022/04/04 09:29:59;;;;;;;7.80;4.33;;;4.00;68.80;;;;;;4392660;28;656213;-66
2022/04/04 09:32:49;;;;;;;7.30;4.93;;;4.00;69.50;;;;;;4400999;28;654529;-66
2022/04/04 09:35:45;;;;;;;7.77;4.30;;;3.90;68.30;;;;;;4399280;28;654207;-66
2022/04/04 09:38:33;;;;;;;10.37;4.57;;;4.30;69.00;;;;;;4375269;28;656563;-67
2022/04/04 09:41:21;;;;;;;9.07;4.97;;;4.40;69.60;;;;;;4397983;28;655360;-66
2022/04/04 09:44:11;;;;;;;13.80;6.37;;;4.60;67.10;;;;;;4413508;28;655148;-67
2022/04/04 09:46:59;;;;;;;19.23;8.60;;;4.90;69.50;;;;;;4398791;28;656801;-66
2022/04/04 09:49:47;;;;;;;23.60;10.87;;;5.00;67.40;;;;;;4401560;28;656372;-67
2022/04/04 09:52:39;;;;;;;17.67;6.67;;;5.20;67.10;;;;;;4413451;28;656710;-67
2022/04/04 09:55:30;;;;;;;15.27;7.47;;;5.30;67.40;;;;;;4404293;28;655565;-66
2022/04/04 09:58:19;;;;;;;8.27;4.97;;;5.10;65.20;;;;;;4400158;28;655572;-67
2022/04/04 10:01:06;;;;;;;13.00;4.67;;;5.10;67.60;;;;;;4402166;28;654160;-67
2022/04/04 10:03:54;;;;;;;8.13;3.20;;;5.00;66.40;;;;;;4425459;28;656895;-67
2022/04/04 10:06:45;;;;;;;11.60;7.73;;;4.80;67.50;;;;;;4396718;28;654919;-67
2022/04/04 10:09:32;;;;;;;7.23;5.13;;;4.90;68.40;;;;;;4395405;28;656684;-66
2022/04/04 10:12:20;;;;;;;11.67;6.37;;;5.30;66.90;;;;;;4425560;28;654441;-67
2022/04/04 10:15:08;;;;;;;9.30;4.80;;;5.90;67.30;;;;;;4397701;28;656736;-67
2022/04/04 10:21:00;;;;;;;9.80;5.23;;;5.60;65.60;;;;;;4407826;28;654809;-67
2022/04/04 10:23:52;;;;;;;7.47;4.43;;;5.20;64.70;;;;;;4423458;28;657246;-67
2022/04/04 10:26:39;;;;;;;6.30;3.20;;;5.40;68.50;;;;;;4400299;28;655188;-67
2022/04/04 10:29:29;;;;;;;6.30;4.00;;;5.80;65.70;;;;;;4406226;28;655305;-67
2022/04/04 10:32:23;;;;;;;5.17;3.13;;;6.00;61.80;;;;;;4395029;28;654815;-67
2022/04/04 10:35:11;;;;;;;5.70;3.53;;;6.00;62.00;;;;;;4370090;28;654888;-67
2022/04/04 10:37:59;;;;;;;10.63;5.90;;;5.80;62.20;;;;;;4420812;28;654792;-67
2022/04/04 10:40:48;;;;;;;9.57;4.60;;;5.60;64.50;;;;;;4400562;28;656962;-67
2022/04/04 10:43:36;;;;;;;7.03;3.20;;;5.70;64.30;;;;;;4398719;28;655138;-67
2022/04/04 10:46:24;;;;;;;14.33;5.97;;;5.80;62.60;;;;;;4425194;28;655829;-67
2022/04/04 10:49:12;;;;;;;10.90;2.87;;;5.70;63.60;;;;;;4389066;28;655442;-67
2022/04/04 10:52:00;;;;;;;7.63;3.93;;;5.60;63.20;;;;;;4421182;28;656212;-67
2022/04/04 10:54:47;;;;;;;8.53;3.47;;;5.80;63.50;;;;;;4400275;28;655840;-67
2022/04/04 10:57:43;;;;;;;5.43;3.37;;;6.30;62.20;;;;;;4411174;28;655738;-68
2022/04/04 11:00:32;;;;;;;7.27;3.97;;;6.80;60.70;;;;;;4390524;28;654863;-68
2022/04/04 11:03:29;;;;;;;5.80;3.43;;;6.80;60.00;;;;;;4414868;28;654218;-67
2022/04/04 11:09:22;;;;;;;7.33;3.20;;;6.00;61.30;;;;;;4400003;28;654390;-67
2022/04/04 11:12:14;;;;;;;7.33;3.43;;;6.20;61.40;;;;;;4429067;28;654846;-67
2022/04/04 11:15:19;;;;;;;9.77;5.27;;;6.60;62.80;;;;;;4413542;28;654566;-67
2022/04/04 11:18:06;;;;;;;5.87;4.07;;;6.90;60.60;;;;;;4353560;28;655274;-67
2022/04/04 11:20:59;;;;;;;12.97;4.93;;;7.10;58.60;;;;;;4401819;28;655572;-67
2022/04/04 11:23:46;;;;;;;9.37;4.73;;;7.00;61.00;;;;;;4378876;28;655880;-67
2022/04/04 11:26:33;;;;;;;4.00;2.77;;;6.60;59.20;;;;;;4401400;28;655373;-67
2022/04/04 11:29:42;;;;;;;8.40;4.63;;;6.90;59.40;;;;;;4381186;28;654691;-67
2022/04/04 11:32:34;;;;;;;9.80;5.80;;;6.50;57.90;;;;;;4413719;28;655127;-67
2022/04/04 11:35:22;;;;;;;10.27;5.10;;;6.60;60.40;;;;;;4395837;28;654761;-67
2022/04/04 11:38:12;;;;;;;3.93;2.57;;;6.30;59.50;;;;;;4414954;28;655270;-67
2022/04/04 11:41:01;;;;;;;6.87;4.97;;;6.00;60.30;;;;;;4397117;28;654876;-67
2022/04/04 11:43:50;;;;;;;10.27;5.23;;;5.90;60.40;;;;;;4392979;28;655807;-67
2022/04/04 11:46:37;;;;;;;6.13;3.10;;;6.10;61.30;;;;;;4400960;28;656746;-67
2022/04/04 11:49:32;;;;;;;4.67;3.20;;;6.10;60.40;;;;;;4422212;28;654697;-67
2022/04/04 11:52:23;;;;;;;6.70;4.63;;;6.70;58.70;;;;;;4393917;28;654372;-68
2022/04/04 11:55:13;;;;;;;7.37;4.30;;;7.00;55.30;;;;;;4376901;28;654253;-67
2022/04/04 11:58:02;;;;;;;7.23;5.40;;;7.10;57.40;;;;;;4398559;28;654696;-67
2022/04/04 12:00:54;;;;;;;5.83;3.80;;;7.30;57.30;;;;;;4420206;28;654604;-67
2022/04/04 12:03:43;;;;;;;6.77;4.10;;;7.30;58.90;;;;;;4375699;28;655253;-67
2022/04/04 12:06:34;;;;;;;6.70;4.10;;;7.10;57.10;;;;;;4398036;28;654569;-67
2022/04/04 12:09:29;;;;;;;6.60;3.37;;;7.10;55.70;;;;;;4397457;28;654220;-67
2022/04/04 12:12:16;;;;;;;7.80;4.10;;;6.50;56.40;;;;;;4354954;28;655009;-67
2022/04/04 12:15:04;;;;;;;6.17;4.67;;;6.60;59.10;;;;;;4407428;28;655249;-67
2022/04/04 12:17:51;;;;;;;6.13;3.97;;;6.40;58.10;;;;;;4399330;28;654435;-67
2022/04/04 12:20:40;;;;;;;7.43;5.50;;;6.30;58.90;;;;;;4417938;28;654333;-67
2022/04/04 12:26:34;;;;;;;6.93;4.03;;;7.10;60.10;;;;;;4395581;28;654037;-67
2022/04/04 12:29:22;;;;;;;7.00;4.47;;;7.30;57.60;;;;;;4394943;28;654961;-67
2022/04/04 12:32:17;;;;;;;5.97;3.33;;;7.20;58.50;;;;;;4400875;28;656247;-67
2022/04/04 12:35:06;;;;;;;8.33;5.33;;;6.90;58.60;;;;;;4378472;28;654848;-67
2022/04/04 12:37:58;;;;;;;8.87;4.93;;;6.00;59.60;;;;;;4378059;28;654898;-66
2022/04/04 12:41:10;;;;;;;10.30;6.20;;;5.80;61.10;;;;;;4366435;28;654698;-67
2022/04/04 12:44:01;;;;;;;7.20;4.60;;;5.60;60.90;;;;;;4354278;28;655613;-67
2022/04/04 12:47:23;;;;;;;5.03;2.90;;;5.60;61.20;;;;;;4405337;28;655564;-67
2022/04/04 12:50:14;;;;;;;4.70;2.93;;;5.50;62.90;;;;;;4375117;28;654766;-67
2022/04/04 12:53:02;;;;;;;8.40;3.93;;;5.70;62.90;;;;;;4380976;28;654933;-67
2022/04/04 12:56:06;;;;;;;4.90;4.03;;;5.60;60.90;;;;;;4403911;28;654596;-66
2022/04/04 12:59:05;;;;;;;5.57;3.43;;;5.50;58.80;;;;;;4379562;28;654292;-67
2022/04/04 13:02:03;;;;;;;5.57;3.53;;;5.60;60.90;;;;;;4358344;28;655040;-66
2022/04/04 13:05:10;;;;;;;7.67;5.30;;;5.80;61.30;;;;;;4348977;28;654917;-67
2022/04/04 13:07:57;;;;;;;7.07;4.60;;;6.10;62.80;;;;;;4379662;28;654595;-67
2022/04/04 13:11:21;;;;;;;6.13;4.13;;;5.80;61.20;;;;;;4395322;28;654539;-67
2022/04/04 13:14:08;;;;;;;7.53;4.50;;;5.70;60.40;;;;;;4376222;28;654544;-67
2022/04/04 13:17:02;;;;;;;9.10;4.87;;;5.80;60.80;;;;;;4380545;28;654502;-67
2022/04/04 13:19:50;;;;;;;5.87;4.03;;;5.80;59.20;;;;;;4378883;28;653990;-67
2022/04/04 13:22:37;;;;;;;6.23;3.13;;;5.50;58.40;;;;;;4394457;28;654403;-67
2022/04/04 13:25:46;;;;;;;10.23;4.07;;;5.40;59.80;;;;;;4421204;28;654014;-67
2022/04/04 13:28:35;;;;;;;5.83;3.20;;;5.40;60.80;;;;;;4395878;28;655210;-66
2022/04/04 13:31:22;;;;;;;5.63;3.40;;;5.30;59.90;;;;;;4397920;28;655383;-66
2022/04/04 13:34:10;;;;;;;5.63;2.83;;;5.30;59.80;;;;;;4412276;28;654528;-66
2022/04/04 13:36:58;;;;;;;6.13;4.13;;;5.40;59.30;;;;;;4400447;28;656146;-67
2022/04/04 13:39:45;;;;;;;3.40;2.20;;;5.40;58.60;;;;;;4379891;28;654463;-67
2022/04/04 13:42:33;;;;;;;7.40;3.03;;;5.50;59.50;;;;;;4398272;28;655541;-67
2022/04/04 13:45:28;;;;;;;3.87;2.00;;;5.40;57.60;;;;;;4387363;28;654905;-67
2022/04/04 13:48:19;;;;;;;8.00;4.00;;;5.50;58.60;;;;;;4412931;28;655477;-67
2022/04/04 13:51:07;;;;;;;6.23;3.37;;;5.60;56.70;;;;;;4404040;28;655665;-67
2022/04/04 13:53:55;;;;;;;4.90;2.80;;;5.60;54.80;;;;;;4414271;28;654999;-67
2022/04/04 13:56:47;;;;;;;4.77;3.37;;;6.00;55.70;;;;;;4375730;28;656658;-67
2022/04/04 13:59:35;;;;;;;7.07;4.07;;;6.70;55.70;;;;;;4375242;28;655677;-67
2022/04/04 14:02:24;;;;;;;5.17;3.23;;;7.10;54.60;;;;;;4375251;28;656326;-67
2022/04/04 14:05:12;;;;;;;7.20;3.77;;;7.50;53.60;;;;;;4389718;28;655522;-67
2022/04/04 14:08:00;;;;;;;3.63;2.23;;;7.10;53.10;;;;;;4419241;28;655385;-67
2022/04/04 14:10:47;;;;;;;4.27;2.90;;;7.00;53.30;;;;;;4382305;28;657160;-67
2022/04/04 14:13:36;;;;;;;5.23;2.57;;;6.80;53.50;;;;;;4397950;28;655935;-67
2022/04/04 14:16:24;;;;;;;8.13;3.67;;;6.60;55.20;;;;;;4390644;28;656508;-67
2022/04/04 14:19:12;;;;;;;6.57;4.03;;;6.50;53.40;;;;;;4396695;28;655458;-67
2022/04/04 14:22:01;;;;;;;4.03;2.60;;;6.20;53.90;;;;;;4414119;28;655225;-66
2022/04/04 14:24:51;;;;;;;5.23;3.23;;;5.70;53.40;;;;;;4415427;28;656353;-66
2022/04/04 14:27:39;;;;;;;6.03;2.97;;;5.30;54.50;;;;;;4391695;28;657113;-67
2022/04/04 14:30:26;;;;;;;3.63;2.55;;;5.30;56.00;;;;;;4391265;28;655667;-67
2022/04/04 14:33:53;;;;;;;6.37;4.03;;;5.40;56.40;;;;;;4397234;28;656068;-67
2022/04/04 14:36:42;;;;;;;6.90;4.27;;;5.50;55.80;;;;;;4390658;28;655714;-67